createdAt,value
2023-05-06T00:00:26.751Z,3.33
2023-05-06T00:02:54.401Z,2.90
2023-05-06T00:05:21.974Z,3.55
2023-05-06T00:07:49.467Z,3.30
2023-05-06T00:10:17.011Z,3.50
2023-05-06T00:12:44.604Z,3.30
2023-05-06T00:15:12.235Z,3.20
2023-05-06T00:17:39.916Z,3.45
2023-05-06T00:20:09.794Z,3.05
2023-05-06T00:22:37.915Z,3.42
2023-05-06T00:25:05.661Z,3.60
2023-05-06T00:27:33.745Z,2.90
2023-05-06T00:30:01.230Z,3.92
2023-05-06T00:32:28.688Z,3.45
2023-05-06T00:34:56.115Z,2.95
2023-05-06T00:37:23.453Z,3.83
2023-05-06T00:39:50.716Z,4.07
2023-05-06T00:42:17.977Z,3.42
2023-05-06T00:44:45.221Z,3.22
2023-05-06T00:47:12.700Z,3.30
2023-05-06T00:49:40.365Z,4.90
2023-05-06T00:52:08.102Z,3.05
2023-05-06T00:54:35.904Z,4.05
2023-05-06T00:57:03.625Z,3.78
2023-05-06T00:59:31.406Z,3.72
2023-05-06T01:02:00.692Z,3.83
2023-05-06T01:04:29.642Z,3.78
2023-05-06T01:07:35.137Z,4.10
2023-05-06T01:10:13.779Z,6.55
2023-05-06T01:12:46.694Z,3.30
2023-05-06T01:15:52.582Z,3.22
2023-05-06T01:18:22.681Z,3.58
2023-05-06T01:20:52.998Z,3.67
2023-05-06T01:23:20.807Z,5.00
2023-05-06T01:25:48.089Z,2.90
2023-05-06T01:28:17.398Z,4.03
2023-05-06T01:30:57.690Z,3.10
2023-05-06T01:33:37.523Z,4.43
2023-05-06T01:36:32.694Z,3.22
2023-05-06T01:39:17.071Z,3.13
2023-05-06T01:41:47.096Z,3.85
2023-05-06T01:44:15.689Z,3.88
2023-05-06T01:46:45.302Z,4.35
2023-05-06T01:49:14.646Z,3.70
2023-05-06T01:51:47.841Z,4.57
2023-05-06T01:54:15.080Z,3.78
2023-05-06T01:56:42.315Z,4.63
2023-05-06T01:59:09.549Z,4.47
2023-05-06T02:01:37.001Z,5.63
2023-05-06T02:04:04.731Z,4.25
2023-05-06T02:06:32.183Z,5.53
2023-05-06T02:08:59.637Z,5.43
2023-05-06T02:11:27.441Z,5.00
2023-05-06T02:14:01.964Z,4.82
2023-05-06T02:16:31.345Z,4.90
2023-05-06T02:18:58.610Z,4.97
2023-05-06T02:21:26.344Z,5.07
2023-05-06T02:23:53.738Z,4.15
2023-05-06T02:26:20.988Z,4.40
2023-05-06T02:28:48.310Z,5.78
2023-05-06T02:31:16.028Z,4.43
2023-05-06T02:33:46.337Z,4.82
2023-05-06T02:36:13.575Z,4.40
2023-05-06T02:38:40.873Z,4.45
2023-05-06T02:41:08.489Z,5.05
2023-05-06T02:43:35.816Z,5.25
2023-05-06T02:46:03.494Z,4.93
2023-05-06T02:48:30.774Z,6.22
2023-05-06T02:50:58.163Z,5.05
2023-05-06T02:53:25.660Z,5.47
2023-05-06T02:55:52.990Z,5.85
2023-05-06T02:58:20.248Z,7.22
2023-05-06T03:00:47.457Z,6.82
2023-05-06T03:03:14.761Z,8.57
2023-05-06T03:05:42.058Z,9.05
2023-05-06T03:08:09.465Z,9.38
2023-05-06T03:10:37.423Z,8.30
2023-05-06T03:13:04.734Z,9.48
2023-05-06T03:15:32.287Z,9.02
2023-05-06T03:18:00.062Z,10.70
2023-05-06T03:20:28.772Z,9.05
2023-05-06T03:22:57.399Z,10.48
2023-05-06T03:25:25.304Z,10.50
2023-05-06T03:27:53.420Z,11.07
2023-05-06T03:30:23.131Z,10.00
2023-05-06T03:32:56.000Z,11.60
2023-05-06T03:35:29.305Z,11.55
2023-05-06T03:37:59.225Z,11.43
2023-05-06T03:40:31.648Z,13.00
2023-05-06T03:42:59.437Z,11.02
2023-05-06T03:45:27.599Z,11.68
2023-05-06T03:47:58.480Z,13.23
2023-05-06T03:50:26.217Z,13.18
2023-05-06T03:52:54.780Z,14.07
2023-05-06T03:55:24.546Z,13.75
2023-05-06T03:57:52.324Z,12.57
2023-05-06T04:00:21.392Z,14.32
2023-05-06T04:02:53.018Z,12.52
2023-05-06T04:05:26.218Z,12.32
2023-05-06T04:07:54.449Z,13.43
2023-05-06T04:10:22.099Z,14.18
2023-05-06T04:12:52.557Z,16.27
2023-05-06T04:15:26.123Z,12.40
2023-05-06T04:17:53.873Z,13.82
2023-05-06T04:20:21.791Z,13.35
2023-05-06T04:22:49.388Z,13.35
2023-05-06T04:25:19.493Z,12.50
2023-05-06T04:27:47.000Z,12.60
2023-05-06T04:30:14.571Z,12.63
2023-05-06T04:32:42.092Z,12.55
2023-05-06T04:35:10.204Z,10.93
2023-05-06T04:37:39.713Z,10.48
2023-05-06T04:40:15.606Z,12.45
2023-05-06T04:42:45.034Z,12.52
2023-05-06T04:45:17.998Z,11.35
2023-05-06T04:47:48.452Z,10.85
2023-05-06T04:50:17.103Z,10.70
2023-05-06T04:52:44.502Z,11.07
2023-05-06T04:55:12.942Z,11.35
2023-05-06T04:57:46.366Z,11.00
2023-05-06T05:00:14.707Z,10.40
2023-05-06T05:02:42.112Z,11.13
2023-05-06T05:05:11.215Z,11.75
2023-05-06T05:07:40.463Z,10.70
2023-05-06T05:10:09.407Z,10.85
2023-05-06T05:12:38.429Z,11.63
2023-05-06T05:15:06.702Z,10.88
2023-05-06T05:17:33.930Z,11.30
2023-05-06T05:20:02.301Z,9.68
2023-05-06T05:22:30.685Z,10.38
2023-05-06T05:24:57.966Z,10.93
2023-05-06T05:27:25.950Z,10.27
2023-05-06T05:29:54.975Z,11.02
2023-05-06T05:32:22.379Z,10.80
2023-05-06T05:34:49.694Z,10.65
2023-05-06T05:37:17.749Z,11.02
2023-05-06T05:39:45.562Z,10.02
2023-05-06T05:42:14.264Z,8.95
2023-05-06T05:44:43.948Z,10.57
2023-05-06T05:47:11.904Z,10.43
2023-05-06T05:49:39.730Z,7.60
2023-05-06T05:52:07.825Z,9.30
2023-05-06T05:54:35.088Z,8.02
2023-05-06T05:57:03.017Z,9.35
2023-05-06T05:59:32.847Z,8.20
2023-05-06T06:02:03.744Z,8.27
2023-05-06T06:04:30.978Z,8.73
2023-05-06T06:06:58.914Z,8.80
2023-05-06T06:09:26.451Z,7.97
2023-05-06T06:11:54.473Z,7.07
2023-05-06T06:14:22.129Z,7.55
2023-05-06T06:16:50.206Z,7.93
2023-05-06T06:19:18.735Z,6.60
2023-05-06T06:21:47.233Z,7.05
2023-05-06T06:24:15.273Z,6.25
2023-05-06T06:26:42.565Z,6.72
2023-05-06T06:29:10.051Z,6.78
2023-05-06T06:31:40.313Z,6.25
2023-05-06T06:34:09.039Z,5.13
2023-05-06T06:36:36.644Z,7.03
2023-05-06T06:39:04.090Z,6.22
2023-05-06T06:41:31.422Z,6.93
2023-05-06T06:43:58.819Z,7.25
2023-05-06T06:46:29.718Z,7.90
2023-05-06T06:48:57.146Z,6.32
2023-05-06T06:51:24.663Z,6.20
2023-05-06T06:53:52.167Z,6.80
2023-05-06T06:56:19.620Z,6.65
2023-05-06T06:58:47.201Z,6.50
2023-05-06T07:01:14.674Z,6.30
2023-05-06T07:03:42.135Z,5.07
2023-05-06T07:06:09.603Z,5.45
2023-05-06T07:08:37.100Z,10.90
2023-05-06T07:11:04.757Z,5.07
2023-05-06T07:13:32.233Z,5.45
2023-05-06T07:15:59.860Z,4.80
2023-05-06T07:18:27.045Z,4.97
2023-05-06T07:20:54.555Z,4.65
2023-05-06T07:23:22.027Z,5.05
2023-05-06T07:25:49.437Z,5.22
2023-05-06T07:28:16.942Z,6.10
2023-05-06T07:30:44.686Z,4.57
2023-05-06T07:33:12.123Z,5.13
2023-05-06T07:35:39.598Z,4.90
2023-05-06T07:38:07.113Z,5.40
2023-05-06T07:40:34.513Z,4.65
2023-05-06T07:43:02.399Z,6.15
2023-05-06T07:45:29.703Z,4.78
2023-05-06T07:47:57.253Z,4.65
2023-05-06T07:50:24.738Z,4.90
2023-05-06T07:52:52.123Z,4.40
2023-05-06T07:55:19.326Z,5.13
2023-05-06T07:57:46.526Z,4.75
2023-05-06T08:00:14.357Z,5.00
2023-05-06T08:02:44.565Z,4.18
2023-05-06T08:05:13.378Z,4.03
2023-05-06T08:07:41.625Z,4.15
2023-05-06T08:10:10.310Z,3.83
2023-05-06T08:12:38.140Z,4.65
2023-05-06T08:15:06.339Z,3.75
2023-05-06T08:17:33.733Z,3.38
2023-05-06T08:20:01.225Z,2.80
2023-05-06T08:22:28.762Z,3.42
2023-05-06T08:24:57.342Z,5.38
2023-05-06T08:27:24.743Z,5.72
2023-05-06T08:29:52.176Z,3.17
2023-05-06T08:32:19.594Z,2.72
2023-05-06T08:34:46.859Z,3.30
2023-05-06T08:37:14.244Z,3.92
2023-05-06T08:39:41.548Z,3.80
2023-05-06T08:42:11.532Z,3.90
2023-05-06T08:44:39.271Z,3.80
2023-05-06T08:47:06.838Z,4.10
2023-05-06T08:49:34.293Z,3.90
2023-05-06T08:52:05.187Z,4.55
2023-05-06T08:54:35.682Z,4.82
2023-05-06T08:57:06.240Z,4.15
2023-05-06T08:59:34.448Z,5.32
2023-05-06T09:02:02.877Z,3.65
2023-05-06T09:04:30.937Z,4.15
2023-05-06T09:06:59.092Z,5.07
2023-05-06T09:09:26.875Z,3.40
2023-05-06T09:11:57.136Z,3.58
2023-05-06T09:14:24.689Z,2.80
2023-05-06T09:16:53.047Z,3.17
2023-05-06T09:19:22.374Z,4.13
2023-05-06T09:21:51.512Z,2.90
2023-05-06T09:24:19.389Z,2.88
2023-05-06T09:26:47.349Z,3.65
2023-05-06T09:29:14.920Z,3.42
2023-05-06T09:31:47.359Z,2.42
2023-05-06T09:34:15.882Z,3.33
2023-05-06T09:36:44.338Z,4.05
2023-05-06T09:39:11.619Z,2.33
2023-05-06T09:41:39.176Z,2.15
2023-05-06T09:44:06.598Z,3.00
2023-05-06T09:46:34.609Z,2.45
2023-05-06T09:49:02.995Z,2.47
2023-05-06T09:51:31.062Z,2.28
2023-05-06T09:54:00.693Z,3.40
2023-05-06T09:56:30.266Z,3.10
2023-05-06T09:59:01.227Z,3.20
2023-05-06T10:01:36.947Z,3.10
2023-05-06T10:04:09.436Z,2.85
2023-05-06T10:06:41.663Z,2.08
2023-05-06T10:09:10.284Z,2.50
2023-05-06T10:11:39.300Z,1.85
2023-05-06T10:14:07.709Z,1.90
2023-05-06T10:16:37.004Z,2.00
2023-05-06T10:19:07.885Z,2.40
2023-05-06T10:21:39.364Z,1.70
2023-05-06T10:24:11.300Z,3.50
2023-05-06T10:26:40.668Z,2.72
2023-05-06T10:29:10.608Z,3.00
2023-05-06T10:31:57.251Z,2.75
2023-05-06T10:34:26.166Z,2.38
2023-05-06T10:36:57.607Z,1.30
2023-05-06T10:39:26.322Z,2.38
2023-05-06T10:41:53.735Z,1.60
2023-05-06T10:44:56.194Z,1.80
2023-05-06T10:47:23.773Z,1.95
2023-05-06T10:50:23.137Z,2.70
2023-05-06T10:52:55.599Z,2.08
2023-05-06T10:55:37.750Z,1.63
2023-05-06T10:58:13.585Z,1.40
2023-05-06T11:00:41.429Z,3.58
2023-05-06T11:03:11.967Z,2.92
2023-05-06T11:05:48.835Z,1.95
2023-05-06T11:08:22.783Z,1.77
2023-05-06T11:10:50.114Z,2.67
2023-05-06T11:13:24.077Z,2.05
2023-05-06T11:15:52.264Z,1.30
2023-05-06T11:18:29.331Z,1.42
2023-05-06T11:21:03.077Z,1.58
2023-05-06T11:23:49.252Z,1.10
2023-05-06T11:26:16.823Z,2.58
2023-05-06T11:28:46.100Z,1.60
2023-05-06T11:31:14.561Z,2.25
2023-05-06T11:33:53.060Z,1.10
2023-05-06T11:36:21.740Z,1.58
2023-05-06T11:38:53.165Z,1.35
2023-05-06T11:41:22.987Z,1.08
2023-05-06T11:43:51.762Z,1.10
2023-05-06T11:46:20.202Z,1.40
2023-05-06T11:48:47.681Z,0.70
2023-05-06T11:51:15.093Z,1.73
2023-05-06T11:53:42.335Z,1.38
2023-05-06T11:56:09.554Z,0.68
2023-05-06T11:58:36.896Z,1.05
2023-05-06T12:01:04.983Z,1.60
2023-05-06T12:03:33.690Z,1.67
2023-05-06T12:06:01.467Z,1.52
2023-05-06T12:08:36.795Z,1.13
2023-05-06T12:11:07.154Z,1.00
2023-05-06T12:13:36.773Z,1.95
2023-05-06T12:16:05.669Z,1.02
2023-05-06T12:18:33.474Z,0.90
2023-05-06T12:21:04.299Z,0.73
2023-05-06T12:23:32.133Z,1.40
2023-05-06T12:26:04.631Z,1.25
2023-05-06T12:28:33.767Z,1.20
2023-05-06T12:31:17.501Z,1.65
2023-05-06T12:33:47.262Z,1.25
2023-05-06T12:36:14.847Z,1.20
2023-05-06T12:38:57.388Z,1.35
2023-05-06T12:41:37.935Z,1.13
2023-05-06T12:44:38.262Z,1.00
2023-05-06T12:47:07.548Z,2.83
2023-05-06T12:49:51.724Z,0.88
2023-05-06T12:52:20.947Z,2.42
2023-05-06T12:54:49.111Z,0.82
2023-05-06T12:57:16.865Z,0.93
2023-05-06T12:59:48.027Z,0.63
2023-05-06T13:02:15.943Z,1.00
2023-05-06T13:04:44.448Z,1.77
2023-05-06T13:07:12.177Z,3.40
2023-05-06T13:09:39.800Z,0.57
2023-05-06T13:12:07.675Z,0.70
2023-05-06T13:14:36.844Z,1.10
2023-05-06T13:17:06.815Z,1.13
2023-05-06T13:19:34.888Z,1.23
2023-05-06T13:22:02.728Z,1.30
2023-05-06T13:24:30.681Z,1.10
2023-05-06T13:27:00.629Z,1.00
2023-05-06T13:29:29.270Z,1.00
2023-05-06T13:31:57.020Z,1.40
2023-05-06T13:34:24.585Z,1.25
2023-05-06T13:36:54.388Z,1.00
2023-05-06T13:39:21.821Z,3.40
2023-05-06T13:41:52.887Z,2.13
2023-05-06T13:44:21.138Z,0.73
2023-05-06T13:46:48.959Z,1.13
2023-05-06T13:49:16.726Z,1.10
2023-05-06T13:51:44.856Z,1.35
2023-05-06T13:54:12.352Z,1.48
2023-05-06T13:56:39.960Z,0.82
2023-05-06T13:59:08.298Z,1.23
2023-05-06T14:01:36.453Z,0.95
2023-05-06T14:04:04.410Z,0.73
2023-05-06T14:06:31.795Z,1.02
2023-05-06T14:08:59.028Z,0.77
2023-05-06T14:11:26.721Z,0.80
2023-05-06T14:13:55.817Z,1.00
2023-05-06T14:16:23.569Z,0.88
2023-05-06T14:18:50.869Z,0.82
2023-05-06T14:21:18.282Z,1.92
2023-05-06T14:23:45.765Z,1.20
2023-05-06T14:26:14.068Z,1.13
2023-05-06T14:28:41.490Z,0.80
2023-05-06T14:31:09.036Z,0.90
2023-05-06T14:33:38.481Z,2.20
2023-05-06T14:36:06.193Z,0.90
2023-05-06T14:38:33.464Z,1.17
2023-05-06T14:41:01.036Z,0.93
2023-05-06T14:43:28.273Z,1.35
2023-05-06T14:45:55.573Z,0.90
2023-05-06T14:48:25.216Z,1.98
2023-05-06T14:50:53.013Z,1.25
2023-05-06T14:53:20.357Z,1.00
2023-05-06T14:55:48.785Z,1.85
2023-05-06T14:58:16.146Z,0.80
2023-05-06T15:00:43.495Z,2.35
2023-05-06T15:03:10.920Z,1.48
2023-05-06T15:05:38.270Z,1.35
2023-05-06T15:08:06.158Z,3.20
2023-05-06T15:10:33.693Z,0.90
2023-05-06T15:13:01.248Z,1.00
2023-05-06T15:15:28.882Z,0.90
2023-05-06T15:17:56.455Z,1.48
2023-05-06T15:20:23.742Z,1.30
2023-05-06T15:22:51.094Z,1.38
2023-05-06T15:25:33.329Z,1.65
2023-05-06T15:28:02.462Z,1.00
2023-05-06T15:30:30.037Z,1.10
2023-05-06T15:32:57.666Z,1.25
2023-05-06T15:35:25.706Z,1.45
2023-05-06T15:37:58.588Z,1.92
2023-05-06T15:40:26.637Z,1.85
2023-05-06T15:42:54.349Z,1.00
2023-05-06T15:45:22.145Z,1.20
2023-05-06T15:47:49.811Z,2.67
2023-05-06T15:50:31.912Z,1.05
2023-05-06T15:53:02.111Z,1.58
2023-05-06T15:55:30.162Z,1.08
2023-05-06T15:58:00.557Z,1.13
2023-05-06T16:00:28.198Z,0.95
2023-05-06T16:02:55.834Z,1.45
2023-05-06T16:05:23.286Z,1.50
2023-05-06T16:07:50.894Z,1.77
2023-05-06T16:10:18.572Z,2.92
2023-05-06T16:12:45.939Z,1.45
2023-05-06T16:15:13.520Z,1.30
2023-05-06T16:17:41.340Z,1.35
2023-05-06T16:20:12.657Z,2.92
2023-05-06T16:22:40.717Z,1.73
2023-05-06T16:25:08.293Z,2.10
2023-05-06T16:27:35.698Z,1.30
2023-05-06T16:30:03.616Z,3.28
2023-05-06T16:32:30.942Z,1.02
2023-05-06T16:34:59.340Z,1.27
2023-05-06T16:37:28.165Z,1.20
2023-05-06T16:39:55.969Z,3.63
2023-05-06T16:42:23.299Z,0.70
2023-05-06T16:44:51.514Z,1.13
2023-05-06T16:47:23.355Z,3.67
2023-05-06T16:49:51.244Z,0.80
2023-05-06T16:52:19.487Z,1.45
2023-05-06T16:54:46.833Z,1.08
2023-05-06T16:57:14.029Z,1.27
2023-05-06T16:59:41.332Z,1.63
2023-05-06T17:02:08.606Z,2.10
2023-05-06T17:04:37.665Z,1.00
2023-05-06T17:07:05.533Z,1.17
2023-05-06T17:09:33.008Z,0.85
2023-05-06T17:12:00.670Z,1.30
2023-05-06T17:14:28.132Z,1.25
2023-05-06T17:16:56.214Z,1.13
2023-05-06T17:19:23.629Z,1.10
2023-05-06T17:21:51.002Z,0.88
2023-05-06T17:24:18.306Z,0.85
2023-05-06T17:26:45.855Z,3.15
2023-05-06T17:29:13.174Z,1.35
2023-05-06T17:31:40.503Z,1.98
2023-05-06T17:34:07.722Z,5.03
2023-05-06T17:36:35.041Z,0.80
2023-05-06T17:39:04.474Z,0.88
2023-05-06T17:41:32.261Z,0.90
2023-05-06T17:43:59.820Z,2.15
2023-05-06T17:46:27.467Z,0.98
2023-05-06T17:48:54.795Z,3.15
2023-05-06T17:51:22.183Z,0.80
2023-05-06T17:53:49.517Z,1.08
2023-05-06T17:56:17.046Z,1.00
2023-05-06T17:58:44.404Z,3.10
2023-05-06T18:01:11.770Z,1.20
2023-05-06T18:03:40.169Z,1.58
2023-05-06T18:06:07.813Z,1.35
2023-05-06T18:08:35.290Z,1.10
2023-05-06T18:11:02.546Z,1.13
2023-05-06T18:13:33.010Z,1.40
2023-05-06T18:16:00.295Z,2.97
2023-05-06T18:18:27.583Z,1.00
2023-05-06T18:20:56.828Z,1.02
2023-05-06T18:23:24.505Z,1.38
2023-05-06T18:25:51.909Z,3.30
2023-05-06T18:28:19.378Z,1.75
2023-05-06T18:30:46.674Z,1.48
2023-05-06T18:33:14.471Z,1.02
2023-05-06T18:35:42.416Z,1.20
2023-05-06T18:38:11.561Z,1.15
2023-05-06T18:40:39.162Z,1.73
2023-05-06T18:43:08.199Z,1.80
2023-05-06T18:45:35.967Z,1.75
2023-05-06T18:48:04.280Z,2.00
2023-05-06T18:50:31.736Z,1.70
2023-05-06T18:52:59.340Z,2.00
2023-05-06T18:55:27.774Z,2.67
2023-05-06T18:57:55.323Z,1.63
2023-05-06T19:00:24.153Z,1.65
2023-05-06T19:02:51.751Z,2.05
2023-05-06T19:05:19.410Z,1.60
2023-05-06T19:07:46.763Z,1.65
2023-05-06T19:10:14.321Z,1.63
2023-05-06T19:12:41.776Z,3.10
2023-05-06T19:15:12.183Z,1.98
2023-05-06T19:17:40.174Z,2.00
2023-05-06T19:20:08.245Z,1.88
2023-05-06T19:22:35.825Z,2.25
2023-05-06T19:25:03.383Z,1.80
2023-05-06T19:27:30.806Z,2.53
2023-05-06T19:29:58.313Z,3.63
2023-05-06T19:32:25.696Z,2.22
2023-05-06T19:34:53.205Z,4.20
2023-05-06T19:37:20.597Z,1.92
2023-05-06T19:39:49.478Z,2.50
2023-05-06T19:42:16.902Z,3.22
2023-05-06T19:44:44.338Z,2.50
2023-05-06T19:47:12.708Z,2.22
2023-05-06T19:49:40.231Z,1.95
2023-05-06T19:52:07.750Z,2.20
2023-05-06T19:54:35.482Z,1.83
2023-05-06T19:57:03.160Z,2.25
2023-05-06T19:59:30.657Z,2.17
2023-05-06T20:02:01.633Z,2.38
2023-05-06T20:04:29.233Z,2.85
2023-05-06T20:06:57.850Z,2.08
2023-05-06T20:09:25.236Z,2.83
2023-05-06T20:11:52.663Z,3.65
2023-05-06T20:14:19.923Z,2.05
2023-05-06T20:16:47.350Z,2.20
2023-05-06T20:19:14.901Z,2.78
2023-05-06T20:21:42.320Z,3.97
2023-05-06T20:24:09.813Z,2.38
2023-05-06T20:26:37.098Z,2.42
2023-05-06T20:29:04.522Z,4.45
2023-05-06T20:31:32.031Z,2.47
2023-05-06T20:33:59.585Z,6.72
2023-05-06T20:36:27.281Z,1.95
2023-05-06T20:38:54.695Z,4.53
2023-05-06T20:41:22.146Z,2.67
2023-05-06T20:43:52.741Z,2.63
2023-05-06T20:46:20.518Z,4.85
2023-05-06T20:48:47.878Z,2.72
2023-05-06T20:51:16.180Z,2.25
2023-05-06T20:53:43.506Z,2.10
2023-05-06T20:56:20.164Z,5.10
2023-05-06T20:58:48.051Z,4.65
2023-05-06T21:01:16.439Z,2.70
2023-05-06T21:03:45.989Z,3.08
2023-05-06T21:06:14.602Z,2.38
2023-05-06T21:08:42.332Z,7.50
2023-05-06T21:11:10.057Z,4.07
2023-05-06T21:13:37.389Z,3.05
2023-05-06T21:16:05.144Z,2.60
2023-05-06T21:18:32.648Z,4.03
2023-05-06T21:21:00.172Z,2.28
2023-05-06T21:23:27.480Z,2.58
2023-05-06T21:25:54.688Z,2.88
2023-05-06T21:28:22.002Z,2.78
2023-05-06T21:30:49.302Z,3.88
2023-05-06T21:33:16.578Z,2.70
2023-05-06T21:35:43.763Z,2.60
2023-05-06T21:38:11.134Z,2.55
2023-05-06T21:40:38.908Z,2.45
2023-05-06T21:43:06.356Z,2.63
2023-05-06T21:45:33.781Z,3.35
2023-05-06T21:48:01.396Z,2.58
2023-05-06T21:50:28.937Z,3.22
2023-05-06T21:52:56.297Z,2.75
2023-05-06T21:55:23.797Z,6.18
2023-05-06T21:57:51.170Z,2.75
2023-05-06T22:00:18.801Z,3.92
2023-05-06T22:02:46.318Z,6.35
2023-05-06T22:05:13.999Z,3.83
2023-05-06T22:07:41.833Z,2.83
2023-05-06T22:10:09.360Z,4.30
2023-05-06T22:12:36.884Z,2.78
2023-05-06T22:15:04.693Z,3.30
2023-05-06T22:17:32.685Z,2.83
2023-05-06T22:20:02.722Z,2.58
2023-05-06T22:22:30.649Z,3.35
2023-05-06T22:24:57.911Z,3.45
2023-05-06T22:27:25.382Z,4.05
2023-05-06T22:29:52.640Z,5.82
2023-05-06T22:32:21.473Z,3.47
2023-05-06T22:34:51.759Z,2.55
2023-05-06T22:37:19.752Z,3.50
2023-05-06T22:39:47.468Z,2.85
2023-05-06T22:42:14.772Z,3.35
2023-05-06T22:44:43.165Z,3.13
2023-05-06T22:47:10.663Z,3.28
2023-05-06T22:49:38.404Z,3.70
2023-05-06T22:52:06.193Z,3.13
2023-05-06T22:54:33.651Z,3.50
2023-05-06T22:57:01.143Z,2.50
2023-05-06T22:59:28.698Z,3.33
2023-05-06T23:01:56.170Z,3.03
2023-05-06T23:04:23.628Z,4.47
2023-05-06T23:06:50.956Z,3.55
2023-05-06T23:09:18.178Z,3.80
2023-05-06T23:11:46.328Z,2.67
2023-05-06T23:14:13.577Z,2.80
2023-05-06T23:16:40.908Z,2.85
2023-05-06T23:19:08.286Z,2.95
2023-05-06T23:21:35.686Z,3.00
2023-05-06T23:24:03.035Z,2.58
2023-05-06T23:26:30.284Z,2.80
2023-05-06T23:28:57.656Z,5.65
2023-05-06T23:31:24.983Z,3.55
2023-05-06T23:33:52.361Z,2.83
2023-05-06T23:36:19.755Z,3.13
2023-05-06T23:38:47.001Z,2.50
2023-05-06T23:41:14.451Z,4.72
2023-05-06T23:43:41.651Z,2.97
2023-05-06T23:46:09.016Z,2.85
2023-05-06T23:48:38.134Z,2.72
2023-05-06T23:51:05.488Z,3.03
2023-05-06T23:53:32.735Z,6.32
2023-05-06T23:56:00.165Z,3.58
2023-05-06T23:58:27.467Z,5.72
